createdAt,value
2017-08-21T00:00:43.368Z,99593.90
2017-08-21T00:03:18.147Z,99592.44
2017-08-21T00:05:47.508Z,99592.78
2017-08-21T00:08:24.039Z,99586.55
2017-08-21T00:10:53.956Z,99588.68
2017-08-21T00:13:23.653Z,99592.72
2017-08-21T00:15:54.236Z,99596.78
2017-08-21T00:18:24.830Z,99599.83
2017-08-21T00:20:54.772Z,99600.53
2017-08-21T00:23:25.237Z,99606.22
2017-08-21T00:25:54.675Z,99608.72
2017-08-21T00:28:25.058Z,99608.78
2017-08-21T00:30:54.771Z,99605.73
2017-08-21T00:33:25.135Z,99605.03
2017-08-21T00:38:23.575Z,99613.00
2017-08-21T00:40:53.506Z,99609.81
2017-08-21T00:43:22.907Z,99611.16
2017-08-21T00:45:52.147Z,99610.53
2017-08-21T00:48:21.646Z,99604.67
2017-08-21T00:50:51.883Z,99605.25
2017-08-21T00:53:21.493Z,99602.72
2017-08-21T00:55:50.718Z,99605.12
2017-08-21T00:58:20.375Z,99604.19
2017-08-21T01:00:49.683Z,99601.36
2017-08-21T01:03:18.877Z,99606.02
2017-08-21T01:05:48.385Z,99606.42
2017-08-21T01:08:18.552Z,99604.16
2017-08-21T01:10:48.053Z,99603.54
2017-08-21T01:13:17.556Z,99616.72
2017-08-21T01:15:46.829Z,99608.69
2017-08-21T01:18:16.059Z,99610.45
2017-08-21T01:20:45.867Z,99614.30
2017-08-21T01:23:15.981Z,99615.30
2017-08-21T01:25:46.000Z,99614.27
2017-08-21T01:28:16.436Z,99618.25
2017-08-21T01:30:46.150Z,99617.97
2017-08-21T01:33:15.475Z,99615.00
2017-08-21T01:35:45.107Z,99609.45
2017-08-21T01:38:14.349Z,99614.92
2017-08-21T01:40:44.128Z,99616.00
2017-08-21T01:43:13.819Z,99613.17
2017-08-21T01:45:43.110Z,99615.27
2017-08-21T01:48:12.283Z,99615.90
2017-08-21T01:50:41.844Z,99610.58
2017-08-21T01:53:11.130Z,99610.16
2017-08-21T01:55:40.911Z,99609.91
2017-08-21T01:58:10.948Z,99606.05
2017-08-21T02:00:40.310Z,99607.10
2017-08-21T02:03:09.697Z,99603.19
2017-08-21T02:05:39.726Z,99607.52
2017-08-21T02:08:09.212Z,99606.58
2017-08-21T02:10:38.479Z,99604.50
2017-08-21T02:13:08.374Z,99602.66
2017-08-21T02:15:37.558Z,99596.34
2017-08-21T02:18:07.186Z,99600.70
2017-08-21T02:20:36.507Z,99598.59
2017-08-21T02:23:07.443Z,99593.28
2017-08-21T02:25:36.847Z,99597.08
2017-08-21T02:28:07.404Z,99587.23
2017-08-21T02:30:40.915Z,99589.63
2017-08-21T02:33:10.304Z,99581.17
2017-08-21T02:35:40.223Z,99576.43
2017-08-21T02:38:18.575Z,99577.41
2017-08-21T02:40:48.279Z,99586.49
2017-08-21T02:43:18.263Z,99586.38
2017-08-21T02:45:47.519Z,99582.55
2017-08-21T02:48:17.211Z,99580.61
2017-08-21T02:50:47.042Z,99579.41
2017-08-21T02:53:16.344Z,99575.79
2017-08-21T02:55:45.711Z,99577.41
2017-08-21T02:58:15.356Z,99576.92
2017-08-21T03:00:45.089Z,99572.73
2017-08-21T03:03:14.413Z,99571.39
2017-08-21T03:05:43.884Z,99573.53
2017-08-21T03:08:13.950Z,99580.14
2017-08-21T03:10:43.149Z,99580.00
2017-08-21T03:13:12.696Z,99579.39
2017-08-21T03:15:42.538Z,99572.03
2017-08-21T03:18:12.105Z,99579.25
2017-08-21T03:20:41.748Z,99576.59
2017-08-21T03:23:11.766Z,99580.61
2017-08-21T03:25:40.982Z,99582.30
2017-08-21T03:28:10.202Z,99581.20
2017-08-21T03:30:39.684Z,99585.47
2017-08-21T03:33:09.086Z,99585.20
2017-08-21T03:35:38.598Z,99583.64
2017-08-21T03:38:08.255Z,99589.77
2017-08-21T03:40:38.076Z,99586.38
2017-08-21T03:43:07.282Z,99586.17
2017-08-21T03:45:36.713Z,99590.98
2017-08-21T03:48:07.226Z,99587.98
2017-08-21T03:50:37.526Z,99593.12
2017-08-21T03:53:07.135Z,99592.09
2017-08-21T03:55:38.189Z,99595.82
2017-08-21T03:58:09.211Z,99599.20
2017-08-21T04:00:38.612Z,99601.09
2017-08-21T04:03:07.890Z,99607.21
2017-08-21T04:05:37.114Z,99604.67
2017-08-21T04:08:06.928Z,99608.20
2017-08-21T04:10:36.274Z,99612.92
2017-08-21T04:13:07.160Z,99613.75
2017-08-21T04:15:36.894Z,99628.59
2017-08-21T04:18:06.987Z,99614.11
2017-08-21T04:20:37.302Z,99611.44
2017-08-21T04:23:07.538Z,99616.48
2017-08-21T04:25:36.736Z,99620.94
2017-08-21T04:28:08.246Z,99616.58
2017-08-21T04:30:37.904Z,99618.97
2017-08-21T04:33:07.433Z,99628.20
2017-08-21T04:35:36.643Z,99628.72
2017-08-21T04:38:07.047Z,99631.47
2017-08-21T04:40:36.694Z,99623.95
2017-08-21T04:43:07.115Z,99630.88
2017-08-21T04:45:36.329Z,99632.70
2017-08-21T04:48:10.793Z,99637.16
2017-08-21T04:50:41.105Z,99642.50
2017-08-21T04:53:10.843Z,99638.97
2017-08-21T04:55:40.194Z,99638.91
2017-08-21T04:58:10.450Z,99639.89
2017-08-21T05:00:40.098Z,99637.56
2017-08-21T05:03:09.473Z,99638.13
2017-08-21T05:05:39.884Z,99637.38
2017-08-21T05:08:11.376Z,99644.02
2017-08-21T05:10:40.933Z,99638.52
2017-08-21T05:13:10.728Z,99642.84
2017-08-21T05:15:40.554Z,99638.45
2017-08-21T05:18:10.268Z,99645.02
2017-08-21T05:21:01.665Z,99645.80
2017-08-21T05:23:35.114Z,99645.43
2017-08-21T05:26:07.598Z,99644.09
2017-08-21T05:29:11.942Z,99645.91
2017-08-21T05:31:41.473Z,99645.60
2017-08-21T05:34:10.759Z,99642.75
2017-08-21T05:36:43.499Z,99647.02
2017-08-21T05:39:12.899Z,99653.06
2017-08-21T05:41:42.431Z,99657.23
2017-08-21T05:44:12.666Z,99654.17
2017-08-21T05:46:42.038Z,99652.91
2017-08-21T05:49:11.244Z,99652.41
2017-08-21T05:51:40.726Z,99650.70
2017-08-21T05:54:10.210Z,99655.58
2017-08-21T05:56:40.063Z,99655.64
2017-08-21T05:59:09.539Z,99654.03
2017-08-21T06:01:38.870Z,99656.52
2017-08-21T06:04:08.055Z,99655.30
2017-08-21T06:06:38.175Z,99660.33
2017-08-21T06:09:07.408Z,99657.30
2017-08-21T06:11:37.012Z,99657.69
2017-08-21T06:14:07.223Z,99662.44
2017-08-21T06:16:43.619Z,99658.36
2017-08-21T06:19:13.442Z,99660.72
2017-08-21T06:21:42.902Z,99662.19
2017-08-21T06:24:12.128Z,99662.82
2017-08-21T06:26:41.868Z,99659.25
2017-08-21T06:29:11.531Z,99668.02
2017-08-21T06:31:40.791Z,99665.05
2017-08-21T06:34:12.128Z,99669.44
2017-08-21T06:36:41.407Z,99670.39
2017-08-21T06:39:12.921Z,99668.99
2017-08-21T06:41:42.655Z,99666.80
2017-08-21T06:44:11.862Z,99674.22
2017-08-21T06:46:41.145Z,99677.46
2017-08-21T06:49:10.644Z,99673.72
2017-08-21T06:51:40.169Z,99679.02
2017-08-21T06:54:09.423Z,99674.85
2017-08-21T06:56:39.256Z,99667.05
2017-08-21T06:59:08.426Z,99679.77
2017-08-21T07:01:37.698Z,99675.41
2017-08-21T07:04:09.564Z,99677.66
2017-08-21T07:06:38.764Z,99686.26
2017-08-21T07:09:08.843Z,99680.91
2017-08-21T07:11:38.773Z,99683.02
2017-08-21T07:14:09.476Z,99680.64
2017-08-21T07:16:39.879Z,99678.51
2017-08-21T07:19:09.562Z,99684.61
2017-08-21T07:21:38.931Z,99685.27
2017-08-21T07:24:08.606Z,99682.42
2017-08-21T07:26:39.502Z,99685.50
2017-08-21T07:29:09.219Z,99695.16
2017-08-21T07:31:38.698Z,99694.16
2017-08-21T07:34:09.838Z,99690.70
2017-08-21T07:36:39.087Z,99694.28
2017-08-21T07:39:08.493Z,99686.69
2017-08-21T07:41:37.964Z,99692.12
2017-08-21T07:44:08.386Z,99686.66
2017-08-21T07:46:37.919Z,99693.12
2017-08-21T07:49:07.656Z,99689.80
2017-08-21T07:51:36.975Z,99683.11
2017-08-21T07:54:06.363Z,99690.00
2017-08-21T07:56:35.815Z,99687.18
2017-08-21T07:59:06.046Z,99697.13
2017-08-21T08:01:35.460Z,99687.97
2017-08-21T08:04:06.796Z,99688.42
2017-08-21T08:06:36.119Z,99692.34
2017-08-21T08:09:08.054Z,99693.74
2017-08-21T08:11:37.519Z,99689.76
2017-08-21T08:14:06.787Z,99691.28
2017-08-21T08:16:35.974Z,99699.21
2017-08-21T08:19:06.391Z,99690.98
2017-08-21T08:21:35.574Z,99696.95
2017-08-21T08:24:07.881Z,99679.91
2017-08-21T08:26:37.384Z,99689.09
2017-08-21T08:29:10.648Z,99684.59
2017-08-21T08:31:39.855Z,99692.12
2017-08-21T08:34:09.620Z,99679.68
2017-08-21T08:36:40.903Z,99681.48
2017-08-21T08:39:10.385Z,99685.30
2017-08-21T08:41:43.211Z,99683.49
2017-08-21T08:44:12.715Z,99686.86
2017-08-21T08:46:41.903Z,99678.82
2017-08-21T08:49:12.106Z,99682.61
2017-08-21T08:51:41.523Z,99690.14
2017-08-21T08:54:11.265Z,99680.89
2017-08-21T08:56:40.902Z,99680.43
2017-08-21T08:59:10.492Z,99690.27
2017-08-21T09:01:39.918Z,99689.72
2017-08-21T09:04:09.392Z,99677.10
2017-08-21T09:06:38.847Z,99685.23
2017-08-21T09:09:08.068Z,99683.03
2017-08-21T09:11:37.783Z,99687.09
2017-08-21T09:14:07.462Z,99676.20
2017-08-21T09:16:36.723Z,99679.22
2017-08-21T09:19:06.313Z,99687.09
2017-08-21T09:21:39.880Z,99682.38
2017-08-21T09:24:09.480Z,99676.48
2017-08-21T09:26:39.025Z,99669.98
2017-08-21T09:29:08.307Z,99683.80
2017-08-21T09:31:37.856Z,99675.21
2017-08-21T09:34:07.101Z,99670.20
2017-08-21T09:36:36.278Z,99679.13
2017-08-21T09:39:06.203Z,99680.98
2017-08-21T09:41:35.745Z,99679.22
2017-08-21T09:44:05.375Z,99675.17
2017-08-21T09:46:35.182Z,99675.58
2017-08-21T09:49:05.559Z,99674.24
2017-08-21T09:51:34.750Z,99671.22
2017-08-21T09:54:06.255Z,99667.97
2017-08-21T09:56:35.838Z,99670.84
2017-08-21T09:59:05.374Z,99666.16
2017-08-21T10:01:34.998Z,99675.57
2017-08-21T10:04:05.616Z,99667.50
2017-08-21T10:06:35.111Z,99674.67
2017-08-21T10:09:06.459Z,99674.97
2017-08-21T10:11:36.075Z,99673.53
2017-08-21T10:14:05.549Z,99674.44
2017-08-21T10:16:35.091Z,99681.66
2017-08-21T10:19:05.753Z,99671.89
2017-08-21T10:21:35.022Z,99679.88
2017-08-21T10:24:06.076Z,99677.16
2017-08-21T10:26:35.354Z,99672.17
2017-08-21T10:29:06.270Z,99671.00
2017-08-21T10:31:36.087Z,99666.42
2017-08-21T10:34:06.131Z,99665.66
2017-08-21T10:36:35.587Z,99664.70
2017-08-21T10:39:11.882Z,99668.95
2017-08-21T10:41:41.475Z,99670.68
2017-08-21T10:44:10.693Z,99666.06
2017-08-21T10:46:40.322Z,99669.76
2017-08-21T10:49:09.667Z,99669.61
2017-08-21T10:51:38.866Z,99673.92
2017-08-21T10:54:10.118Z,99668.20
2017-08-21T10:56:39.306Z,99664.86
2017-08-21T10:59:08.777Z,99663.23
2017-08-21T11:01:38.355Z,99666.44
2017-08-21T11:04:09.323Z,99668.48
2017-08-21T11:06:38.547Z,99661.95
2017-08-21T11:09:08.284Z,99668.86
2017-08-21T11:11:37.651Z,99656.70
2017-08-21T11:14:06.827Z,99663.87
2017-08-21T11:16:36.316Z,99656.11
2017-08-21T11:19:05.723Z,99655.48
2017-08-21T11:21:34.971Z,99654.38
2017-08-21T11:24:05.853Z,99649.36
2017-08-21T11:26:35.036Z,99656.06
2017-08-21T11:29:04.355Z,99638.11
2017-08-21T11:31:33.868Z,99638.01
2017-08-21T11:34:05.699Z,99632.55
2017-08-21T11:39:08.555Z,99637.19
2017-08-21T11:41:37.749Z,99630.30
2017-08-21T11:44:06.951Z,99628.27
2017-08-21T11:46:36.405Z,99626.62
2017-08-21T11:49:05.840Z,99624.92
2017-08-21T11:51:35.204Z,99617.36
2017-08-21T11:54:05.465Z,99610.70
2017-08-21T11:56:34.743Z,99615.11
2017-08-21T11:59:05.624Z,99616.62
2017-08-21T12:01:35.495Z,99613.09
2017-08-21T12:04:05.884Z,99617.55
2017-08-21T12:06:35.231Z,99614.73
2017-08-21T12:09:06.687Z,99611.58
2017-08-21T12:11:36.192Z,99609.51
2017-08-21T12:14:06.697Z,99607.95
2017-08-21T12:16:36.679Z,99601.78
2017-08-21T12:19:06.159Z,99606.67
2017-08-21T12:21:35.759Z,99607.78
2017-08-21T12:24:06.611Z,99601.75
2017-08-21T12:26:35.892Z,99602.27
2017-08-21T12:29:06.241Z,99604.92
2017-08-21T12:31:36.132Z,99593.56
2017-08-21T12:34:06.724Z,99591.93
2017-08-21T12:36:35.999Z,99586.85
2017-08-21T12:39:06.584Z,99583.12
2017-08-21T12:41:36.055Z,99582.98
2017-08-21T12:44:06.400Z,99578.52
2017-08-21T12:46:35.930Z,99587.86
2017-08-21T12:49:07.525Z,99587.91
2017-08-21T12:51:37.008Z,99579.20
2017-08-21T12:54:06.215Z,99583.55
2017-08-21T12:56:39.048Z,99581.69
2017-08-21T12:59:08.640Z,99580.17
2017-08-21T13:01:37.846Z,99579.70
2017-08-21T13:04:07.195Z,99580.58
2017-08-21T13:06:44.990Z,99576.63
2017-08-21T13:09:17.546Z,99569.36
2017-08-21T13:11:46.751Z,99567.67
2017-08-21T13:14:16.536Z,99570.43
2017-08-21T13:16:45.744Z,99567.61
2017-08-21T13:19:14.956Z,99568.39
2017-08-21T13:21:44.459Z,99572.75
2017-08-21T13:24:13.760Z,99565.54
2017-08-21T13:26:42.993Z,99562.93
2017-08-21T13:29:12.671Z,99572.77
2017-08-21T13:31:41.925Z,99561.02
2017-08-21T13:34:11.117Z,99554.55
2017-08-21T13:36:40.575Z,99563.44
2017-08-21T13:39:09.765Z,99559.58
2017-08-21T13:41:38.954Z,99551.47
2017-08-21T13:44:08.563Z,99552.82
2017-08-21T13:46:38.078Z,99547.64
2017-08-21T13:49:07.359Z,99544.56
2017-08-21T13:51:36.964Z,99545.58
2017-08-21T13:54:06.353Z,99539.98
2017-08-21T13:56:35.949Z,99547.16
2017-08-21T13:59:06.165Z,99544.05
2017-08-21T14:01:35.548Z,99548.83
2017-08-21T14:04:06.296Z,99545.03
2017-08-21T14:06:35.855Z,99534.19
2017-08-21T14:09:06.775Z,99535.86
2017-08-21T14:11:36.074Z,99537.41
2017-08-21T14:14:06.635Z,99537.91
2017-08-21T14:16:37.163Z,99543.25
2017-08-21T14:19:06.427Z,99540.69
2017-08-21T14:21:36.164Z,99538.27
2017-08-21T14:24:05.730Z,99534.41
2017-08-21T14:26:35.123Z,99535.69
2017-08-21T14:29:07.015Z,99531.22
2017-08-21T14:31:38.533Z,99543.73
2017-08-21T14:34:07.723Z,99540.48
2017-08-21T14:36:37.487Z,99532.19
2017-08-21T14:39:07.427Z,99528.29
2017-08-21T14:41:36.775Z,99528.72
2017-08-21T14:44:07.088Z,99530.21
2017-08-21T14:46:36.359Z,99524.98
2017-08-21T14:49:05.584Z,99535.35
2017-08-21T14:51:35.111Z,99534.31
2017-08-21T14:54:05.873Z,99529.66
2017-08-21T14:56:35.214Z,99534.73
2017-08-21T14:59:06.243Z,99533.70
2017-08-21T15:01:35.432Z,99532.94
2017-08-21T15:04:06.802Z,99539.06
2017-08-21T15:06:40.549Z,99535.74
2017-08-21T15:09:09.828Z,99530.59
2017-08-21T15:11:39.131Z,99525.20
2017-08-21T15:14:08.928Z,99533.00
2017-08-21T15:16:38.144Z,99526.98
2017-08-21T15:19:07.450Z,99527.44
2017-08-21T15:21:36.969Z,99523.80
2017-08-21T15:24:06.514Z,99521.49
2017-08-21T15:26:35.734Z,99525.73
2017-08-21T15:29:06.163Z,99518.94
2017-08-21T15:31:35.690Z,99521.97
2017-08-21T15:34:06.098Z,99517.86
2017-08-21T15:36:35.623Z,99516.84
2017-08-21T15:39:06.755Z,99518.38
2017-08-21T15:41:36.156Z,99516.15
2017-08-21T15:44:06.939Z,99525.95
2017-08-21T15:46:36.127Z,99524.84
2017-08-21T15:49:06.714Z,99527.48
2017-08-21T15:51:36.283Z,99529.56
2017-08-21T15:54:11.378Z,99527.02
2017-08-21T15:56:40.675Z,99532.42
2017-08-21T15:59:11.905Z,99537.91
2017-08-21T16:01:41.272Z,99531.69
2017-08-21T16:04:10.945Z,99539.11
2017-08-21T16:06:40.630Z,99539.34
2017-08-21T16:09:10.185Z,99540.36
2017-08-21T16:11:39.409Z,99530.73
2017-08-21T16:14:11.370Z,99527.63
2017-08-21T16:16:40.650Z,99527.71
2017-08-21T16:19:09.911Z,99524.84
2017-08-21T16:21:39.387Z,99527.47
2017-08-21T16:24:08.655Z,99521.84
2017-08-21T16:26:37.907Z,99520.31
2017-08-21T16:29:07.480Z,99517.10
2017-08-21T16:31:36.780Z,99519.29
2017-08-21T16:34:06.455Z,99518.13
2017-08-21T16:36:36.026Z,99520.91
2017-08-21T16:39:06.403Z,99519.52
2017-08-21T16:41:35.800Z,99515.66
2017-08-21T16:44:06.523Z,99519.72
2017-08-21T16:46:35.735Z,99519.95
2017-08-21T16:49:05.742Z,99523.05
2017-08-21T16:51:35.278Z,99518.60
2017-08-21T16:54:06.790Z,99515.83
2017-08-21T16:56:36.079Z,99513.56
2017-08-21T16:59:06.172Z,99510.23
2017-08-21T17:01:35.843Z,99517.66
2017-08-21T17:04:07.019Z,99513.36
2017-08-21T17:06:37.976Z,99514.77
2017-08-21T17:09:07.226Z,99505.72
2017-08-21T17:11:36.654Z,99507.16
2017-08-21T17:14:06.441Z,99506.91
2017-08-21T17:16:36.149Z,99509.29
2017-08-21T17:19:08.103Z,99513.48
2017-08-21T17:21:38.227Z,99516.03
2017-08-21T17:24:08.499Z,99514.36
2017-08-21T17:26:38.001Z,99515.30
2017-08-21T17:29:08.739Z,99519.13
2017-08-21T17:31:38.024Z,99524.52
2017-08-21T17:34:07.776Z,99522.88
2017-08-21T17:36:37.558Z,99528.66
2017-08-21T17:39:06.857Z,99534.95
2017-08-21T17:41:36.672Z,99534.08
2017-08-21T17:44:06.663Z,99536.65
2017-08-21T17:46:36.123Z,99533.12
2017-08-21T17:49:08.170Z,99533.60
2017-08-21T17:51:38.315Z,99535.78
2017-08-21T17:54:08.067Z,99532.17
2017-08-21T17:56:38.210Z,99541.59
2017-08-21T17:59:08.058Z,99545.29
2017-08-21T18:01:39.673Z,99542.39
2017-08-21T18:04:11.593Z,99544.62
2017-08-21T18:06:41.179Z,99541.58
2017-08-21T18:09:17.871Z,99547.31
2017-08-21T18:11:49.570Z,99549.16
2017-08-21T18:14:19.008Z,99550.17
2017-08-21T18:16:50.025Z,99549.16
2017-08-21T18:19:19.882Z,99545.16
2017-08-21T18:21:50.335Z,99546.15
2017-08-21T18:24:21.229Z,99555.53
2017-08-21T18:26:50.591Z,99553.09
2017-08-21T18:29:20.135Z,99552.69
2017-08-21T18:31:49.963Z,99557.27
2017-08-21T18:34:19.572Z,99557.17
2017-08-21T18:36:48.903Z,99555.12
2017-08-21T18:39:18.529Z,99564.78
2017-08-21T18:41:47.839Z,99565.56
2017-08-21T18:44:17.059Z,99571.92
2017-08-21T18:46:46.631Z,99569.31
2017-08-21T18:49:15.940Z,99578.25
2017-08-21T18:51:45.206Z,99578.40
2017-08-21T18:54:14.750Z,99579.55
2017-08-21T18:56:44.083Z,99578.33
2017-08-21T18:59:13.363Z,99581.20
2017-08-21T19:01:42.975Z,99581.18
2017-08-21T19:04:12.496Z,99580.98
2017-08-21T19:06:41.747Z,99582.97
2017-08-21T19:09:11.667Z,99592.16
2017-08-21T19:11:40.884Z,99588.71
2017-08-21T19:14:10.156Z,99594.84
2017-08-21T19:16:39.827Z,99594.74
2017-08-21T19:19:09.251Z,99591.46
2017-08-21T19:21:38.512Z,99596.76
2017-08-21T19:24:08.987Z,99593.23
2017-08-21T19:26:40.108Z,99594.88
2017-08-21T19:29:09.319Z,99593.41
2017-08-21T19:31:39.996Z,99584.69
2017-08-21T19:34:12.228Z,99585.05
2017-08-21T19:36:41.582Z,99587.38
2017-08-21T19:39:11.183Z,99584.09
2017-08-21T19:41:40.526Z,99588.09
2017-08-21T19:44:10.420Z,99588.98
2017-08-21T19:46:40.028Z,99599.11
2017-08-21T19:49:09.190Z,99594.97
2017-08-21T19:51:38.436Z,99600.16
2017-08-21T19:54:07.968Z,99602.84
2017-08-21T19:56:37.324Z,99597.28
2017-08-21T19:59:06.528Z,99594.92
2017-08-21T20:01:36.051Z,99600.86
2017-08-21T20:04:05.219Z,99601.02
2017-08-21T20:06:34.485Z,99600.20
2017-08-21T20:09:04.242Z,99598.68
2017-08-21T20:11:33.536Z,99596.77
2017-08-21T20:14:04.667Z,99601.86
2017-08-21T20:16:34.335Z,99594.73
2017-08-21T20:19:05.615Z,99605.27
2017-08-21T20:21:34.880Z,99600.62
2017-08-21T20:24:06.732Z,99605.77
2017-08-21T20:26:36.058Z,99600.13
2017-08-21T20:29:07.041Z,99600.83
2017-08-21T20:31:36.671Z,99604.07
2017-08-21T20:34:05.886Z,99602.12
2017-08-21T20:36:35.071Z,99597.67
2017-08-21T20:39:05.424Z,99599.23
2017-08-21T20:41:34.604Z,99602.98
2017-08-21T20:44:03.819Z,99602.14
2017-08-21T20:46:33.410Z,99606.23
2017-08-21T20:49:04.967Z,99603.40
2017-08-21T20:51:34.226Z,99600.11
2017-08-21T20:54:05.794Z,99599.30
2017-08-21T20:56:35.123Z,99600.22
2017-08-21T20:59:06.267Z,99594.16
2017-08-21T21:01:35.740Z,99598.76
2017-08-21T21:04:07.219Z,99595.10
2017-08-21T21:06:36.466Z,99592.20
2017-08-21T21:09:06.945Z,99593.12
2017-08-21T21:11:36.139Z,99591.55
2017-08-21T21:14:06.615Z,99587.63
2017-08-21T21:16:36.138Z,99591.00
2017-08-21T21:19:06.135Z,99583.95
2017-08-21T21:21:35.321Z,99584.94
2017-08-21T21:24:05.756Z,99585.22
2017-08-21T21:26:34.971Z,99584.38
2017-08-21T21:29:07.373Z,99582.81
2017-08-21T21:31:37.130Z,99587.22
2017-08-21T21:34:06.530Z,99587.20
2017-08-21T21:36:35.870Z,99590.65
2017-08-21T21:39:06.653Z,99588.81
2017-08-21T21:41:35.850Z,99585.99
2017-08-21T21:44:05.836Z,99583.25
2017-08-21T21:46:35.344Z,99579.61
2017-08-21T21:49:06.196Z,99583.58
2017-08-21T21:51:35.635Z,99584.19
2017-08-21T21:54:06.463Z,99588.27
2017-08-21T21:56:35.991Z,99593.83
2017-08-21T21:59:06.343Z,99589.23
2017-08-21T22:01:36.846Z,99587.90
2017-08-21T22:04:06.099Z,99587.97
2017-08-21T22:06:35.566Z,99590.20
2017-08-21T22:09:08.156Z,99594.05
2017-08-21T22:11:37.879Z,99588.98
2017-08-21T22:14:07.147Z,99592.50
2017-08-21T22:16:37.190Z,99597.44
2017-08-21T22:19:06.463Z,99590.95
2017-08-21T22:21:38.135Z,99587.77
2017-08-21T22:24:08.939Z,99585.58
2017-08-21T22:26:39.751Z,99594.56
2017-08-21T22:29:09.204Z,99594.99
2017-08-21T22:31:38.834Z,99590.70
2017-08-21T22:34:08.062Z,99599.09
2017-08-21T22:36:37.391Z,99601.83
2017-08-21T22:39:06.946Z,99598.34
2017-08-21T22:41:36.615Z,99596.48
2017-08-21T22:44:06.752Z,99596.48
2017-08-21T22:46:36.431Z,99599.25
2017-08-21T22:49:06.754Z,99595.08
2017-08-21T22:51:36.250Z,99593.77
2017-08-21T22:54:06.827Z,99588.49
2017-08-21T22:56:36.422Z,99592.36
2017-08-21T22:59:06.723Z,99586.09
2017-08-21T23:01:36.221Z,99587.97
2017-08-21T23:04:06.944Z,99584.77
2017-08-21T23:06:36.429Z,99582.69
2017-08-21T23:09:06.935Z,99580.51
2017-08-21T23:11:36.186Z,99579.83
2017-08-21T23:14:06.409Z,99578.98
2017-08-21T23:16:36.259Z,99580.28
2017-08-21T23:19:06.461Z,99575.39
2017-08-21T23:21:35.878Z,99575.64
2017-08-21T23:24:08.328Z,99570.25
2017-08-21T23:26:37.713Z,99567.48
2017-08-21T23:29:06.887Z,99567.23
2017-08-21T23:31:36.840Z,99564.34
2017-08-21T23:34:06.019Z,99562.97
2017-08-21T23:36:35.413Z,99560.71
2017-08-21T23:39:06.918Z,99566.27
2017-08-21T23:41:36.479Z,99570.31
2017-08-21T23:44:06.015Z,99565.70
2017-08-21T23:46:36.106Z,99565.92
2017-08-21T23:49:06.510Z,99567.69
2017-08-21T23:51:35.995Z,99562.89
2017-08-21T23:54:06.271Z,99557.72
2017-08-21T23:56:35.542Z,99555.96
2017-08-21T23:59:06.304Z,99556.11
